• Join FlightAware (Why Join?)
  • Login
  • US Flag 
05:44PM EDT


 

Airport Tracker/Info


-or-


 

Live Flight TrackerFlight Track Log ✈ LXJ342 ✈ 05-May-2013 ✈ KOMA - KPWK

Flight Track Log - Related Links

Times and Time Zones

All times are in EDT time to prevent confusion due to time zone crossing. See the LXJ342 flight status page for this flight to view local times or setup timezone preferences in your user account.

Time Position Orientation Groundspeed Altitude Reporting Facility
EDT Latitude Longitude Course Direction KTS MPH feet Rate Location/Type
08:57AM 41.3103 -95.9011 80° East 162 186 1,600  Level Minneapolis Center
08:58AM 41.3322 -95.9014 359° North 188 216 2,900 2,220 Climbing Minneapolis Center
08:59AM 41.3836 -95.8833 15° North 213 245 5,600 3,300 Climbing Minneapolis Center
09:00AM 41.3892 -95.7842 86° East 225 259 10,300 4,320 Climbing Minneapolis Center
09:01AM 41.3928 -95.6639 88° East 265 305 14,400 3,600 Climbing Minneapolis Center
09:02AM 41.3961 -95.5531 88° East 295 339 17,700 2,940 Climbing Minneapolis Center
09:03AM 41.4470 -94.8108 80° East  Level Estimated
09:03AM 41.3992 -95.4372 88° East 309 356 20,400  Level Minneapolis Center
09:04AM 41.4025 -95.3097 88° East 336 387 22,700 2,160 Climbing Minneapolis Center
09:05AM 41.4064 -95.1756 88° East 357 411 24,800 1,920 Climbing Minneapolis Center
09:06AM 41.4100 -95.0331 88° East 379 436 26,700 1,800 Climbing Minneapolis Center
09:07AM 41.4139 -94.8853 88° East 394 453 28,500 1,740 Climbing Minneapolis Center
09:08AM 41.4175 -94.7350 88° East 404 465 30,300 1,680 Climbing Minneapolis Center
09:09AM 41.4211 -94.5831 88° East 409 471 32,000 1,380 Climbing Minneapolis Center
09:10AM 41.4258 -94.4314 88° East 410 472 33,100 1,020 Climbing Minneapolis Center
09:11AM 41.4664 -94.2847 70° East 420 483 34,100 1,020 Climbing Minneapolis Center
09:12AM 41.5092 -94.1272 70° East 420 483 35,200 960 Climbing Minneapolis Center
09:13AM 41.5494 -93.9800 70° East 422 486 36,100 840 Climbing Minneapolis Center
09:14AM 41.5903 -93.8333 70° East 424 488 37,000 420 Climbing Minneapolis Center
09:15AM 41.6325 -93.6825 69° East 430 495 37,000  Level Minneapolis Center
09:16AM 41.6750 -93.5283 70° East 440 506 37,000  Level Minneapolis Center
09:17AM 41.7183 -93.3717 70° East 447 514 37,000  Level Minneapolis Center
09:18AM 41.7356 -93.2092 82° East 444 511 37,000  Level Minneapolis Center
09:19AM 41.7494 -93.0475 83° East 442 509 37,000  Level Minneapolis Center
09:20AM 41.7633 -92.8861 83° East 440 506 37,000  Level Minneapolis Center
09:21AM 41.7781 -92.7103 84° East 439 505 37,000  Level Minneapolis Center
09:22AM 41.7917 -92.5500 83° East 439 505 37,000  Level Minneapolis Center
09:23AM 41.7964 -92.4847 84° East 436 502 37,000 -480 Level Chicago Center
09:24AM 41.8092 -92.3272 84° East 432 497 36,400 -840 Descending Chicago Center
09:25AM 41.8219 -92.1678 84° East 434 499 35,400 -1,140 Descending Chicago Center
09:26AM 41.8364 -91.9786 84° East 432 497 34,100 -1,260 Descending Chicago Center
09:27AM 41.8492 -91.8169 84° East 440 506 32,900 -1,140 Descending Chicago Center
09:28AM 41.8608 -91.6575 84° East 437 503 31,800 -1,080 Descending Chicago Center
09:29AM 41.8722 -91.4961 85° East 439 505 30,700 -1,140 Descending Chicago Center
09:30AM 41.8850 -91.3300 84° East 450 518 29,500 -1,200 Descending Chicago Center
09:31AM 41.8958 -91.1658 85° East 449 517 28,300 -1,260 Descending Chicago Center
09:32AM 41.9097 -90.9731 84° East 442 509 27,000 -1,260 Descending Chicago Center
09:33AM 41.9192 -90.8167 85° East 431 496 25,800 -1,140 Descending Chicago Center
09:34AM 41.9294 -90.6606 85° East 427 491 24,700 -1,140 Descending Chicago Center
09:35AM 41.9444 -90.5114 82° East 413 475 23,500 -1,620 Descending Chicago Center
09:36AM 41.9781 -90.3661 73° East 409 471 21,500 -2,040 Descending Chicago Center
09:37AM 42.0153 -90.1983 73° East 394 453 19,400 -1,860 Descending Chicago Center
09:38AM 42.0444 -90.0653 74° East 379 436 17,700 -1,620 Descending Chicago Center
09:39AM 42.0708 -89.9383 74° East 362 417 16,200 -1,620 Descending Chicago Center
09:40AM 42.0989 -89.8006 75° East 352 405 14,500 -1,620 Descending Chicago Center
09:41AM 42.1258 -89.6786 73° East 342 394 12,900 -1,560 Descending Chicago Center
09:42AM 42.1508 -89.5553 75° East 341 392 11,400 -1,200 Descending Chicago Center
09:43AM 42.1775 -89.4350 73° East 336 387 10,500 -720 Descending Chicago Center
09:44AM 42.2036 -89.3119 74° East 340 391 10,000 -300 Descending Chicago Center
09:45AM 42.2286 -89.1933 74° East 333 383 9,900 -1,260 Descending Chicago Center
09:46AM 42.2528 -89.0803 74° East 276 318 7,500 -2,160 Descending Chicago Center
09:47AM 42.2739 -88.9842 73° East 268 308 5,500 -1,260 Descending Chicago Center
09:48AM 42.2922 -88.8931 75° East 257 296 5,000 -300 Descending Chicago Center
09:49AM 42.3097 -88.8111 74° East 253 291 5,000  Level Chicago Center
09:50AM 42.3336 -88.6994 74° East 257 296 5,000  Level Chicago Center
09:52AM 42.3500 -88.6158 75° East 258 297 5,000 -240 Level Chicago Center
09:53AM 42.3694 -88.5217 74° East 258 297 4,600 -540 Descending Chicago Center
09:54AM 42.3494 -88.4192 105° East 246 283 4,000 -420 Descending Chicago Center
09:55AM 42.3300 -88.3383 108° East 245 282 3,800 -540 Descending Chicago Center
09:56AM 42.3117 -88.2742 111° Southeast 204 235 3,000 -720 Descending Chicago Center
09:57AM 42.2919 -88.2086 112° Southeast 190 219 2,400 -300 Descending Chicago Center
09:58AM 42.2661 -88.1253 113° Southeast 198 228 2,400  Level Chicago Center
09:59AM 42.2483 -88.0547 109° East 197 227 2,400  Level Chicago Center
10:00AM 42.2300 -87.9894 111° Southeast 194 223 2,400 -120 Level Chicago Center
10:01AM 42.1978 -87.9475 136° Southeast 184 212 2,200 -420 Descending Chicago Center
10:02AM 42.1567 -87.9269 160° South 163 188 1,600 -600 Descending Chicago Center
10:04AM 42.1143 -87.9015 132° Southeast  Level Estimated